PWSweather.com
Personal Weather Stations
Station Observations
CARNOUSTIE
Pambride, CarnoustieGB DD7 6DY

PambrideCarnoustieGB DD7 6DY

Lat: 56.50889, Lon: -2.7051

Elevation: 105

Station Type: Oregon Scientific WMR200

Latest ConditionsUpdated 1:40:00 PM GMT Tuesday, Jan 23, 2018
Currently Today's Max Today's Min Today's Average
Temperature 49.1°F9.5°C 50.7°F10.4°C 41.9°F5.5°C 44.4°F6.9°C
Dew Point 48.6°F9.2°C 50.2°F10.1°C 41.4°F5.2°C 43.9°F6.6°C
Winds 4.6 mph WSW7.4 kmh WSW 9.2 mph SW14.8 kmh SW - 2.0 mph 3.2 kmh
Wind Gusts 5.8 mph9.3 kmh 17.3 mph27.8 kmh - -
Humidity 98% 98% 98% 98%
Pressure 29.32 in992.9 mb 29.71 in1006.1 mb 29.32 in992.9 mb -
Precipitation - 0.17 in4.3 mm - -
Hour Temp Dew Point Humidity Winds Wind Gusts Pressure Precip Precip Rate Daily Precip Total
01:40 PM 49.1°F9.5°C 48.6°F9.2°C 98% 4.6 mph WSW7.4 kmh WSW 5.8 mph9.3 kmh 29.32 in992.9 mb - 0.00 in0.0 mm 0.17 in4.3 mm
01:30 PM 49.6°F9.8°C 49.1°F9.5°C 98% 4.6 mph WSW7.4 kmh WSW 8.1 mph13.0 kmh 29.32 in992.9 mb - 0.00 in0.0 mm 0.17 in4.3 mm
01:20 PM 49.8°F9.9°C 49.3°F9.6°C 98% 8.1 mph W13.0 kmh W 17.3 mph27.8 kmh 29.32 in992.9 mb - 0.00 in0.0 mm 0.17 in4.3 mm
01:10 PM 50.0°F10.0°C 49.5°F9.7°C 98% 9.2 mph WSW14.8 kmh WSW 15.0 mph24.1 kmh 29.32 in992.9 mb - 0.00 in0.0 mm 0.17 in4.3 mm
01:00 PM 50.0°F10.0°C 49.5°F9.7°C 98% 6.9 mph WSW11.1 kmh WSW 8.1 mph13.0 kmh 29.32 in992.9 mb - 0.02 in0.5 mm 0.17 in4.3 mm
12:50 PM 50.2°F10.1°C 49.6°F9.8°C 98% 9.2 mph WSW14.8 kmh WSW 12.7 mph20.4 kmh 29.32 in992.9 mb - 0.00 in0.0 mm 0.15 in3.8 mm
12:40 PM 50.2°F10.1°C 49.6°F9.8°C 98% 9.2 mph WSW14.8 kmh WSW 10.4 mph16.7 kmh 29.35 in993.9 mb - 0.02 in0.5 mm 0.15 in3.8 mm
12:30 PM 50.3°F10.2°C 49.8°F9.9°C 98% 8.1 mph W13.0 kmh W 9.2 mph14.8 kmh 29.35 in993.9 mb - 0.02 in0.5 mm 0.14 in3.6 mm
12:20 PM 50.7°F10.4°C 50.2°F10.1°C 98% 6.9 mph WSW11.1 kmh WSW 13.8 mph22.2 kmh 29.35 in993.9 mb - 0.00 in0.0 mm 0.12 in3.0 mm
12:10 PM 50.7°F10.4°C 50.2°F10.1°C 98% 4.6 mph WSW7.4 kmh WSW 13.8 mph22.2 kmh 29.32 in992.9 mb - 0.00 in0.0 mm 0.12 in3.0 mm
12:00 PM 50.7°F10.4°C 50.2°F10.1°C 98% 9.2 mph SW14.8 kmh SW 16.1 mph25.9 kmh 29.34 in993.6 mb - 0.00 in0.0 mm 0.12 in3.0 mm
11:50 AM 50.3°F10.2°C 49.7°F9.8°C 98% 6.9 mph WSW11.1 kmh WSW 15.0 mph24.1 kmh 29.35 in993.9 mb - 0.02 in0.5 mm 0.12 in3.0 mm
11:40 AM 49.8°F9.9°C 49.3°F9.6°C 98% 5.8 mph WSW9.3 kmh WSW 10.4 mph16.7 kmh 29.35 in993.9 mb - 0.00 in0.0 mm 0.10 in2.5 mm
11:30 AM 49.1°F9.5°C 48.6°F9.2°C 98% 3.5 mph SW5.6 kmh SW 10.4 mph16.7 kmh 29.37 in994.6 mb - 0.00 in0.0 mm 0.10 in2.5 mm
11:20 AM 48.2°F9.0°C 47.6°F8.7°C 98% 3.5 mph SW5.6 kmh SW 4.6 mph7.4 kmh 29.38 in994.9 mb - 0.00 in0.0 mm 0.10 in2.5 mm
11:10 AM 47.1°F8.4°C 46.6°F8.1°C 98% Calm Calm -- 29.38 in994.9 mb - 0.00 in0.0 mm 0.10 in2.5 mm
11:00 AM 46.4°F8.0°C 45.9°F7.7°C 98% Calm Calm -- 29.38 in994.9 mb - 0.00 in0.0 mm 0.10 in2.5 mm
10:50 AM 45.5°F7.5°C 45.0°F7.2°C 98% Calm Calm 1.2 mph1.9 kmh 29.38 in994.9 mb - 0.00 in0.0 mm 0.10 in2.5 mm
10:40 AM 45.1°F7.3°C 44.6°F7.0°C 98% Calm Calm -- 29.38 in994.9 mb - 0.00 in0.0 mm 0.10 in2.5 mm
10:30 AM 45.0°F7.2°C 44.4°F6.9°C 98% Calm Calm -- 29.38 in994.9 mb - 0.00 in0.0 mm 0.10 in2.5 mm
10:20 AM 45.0°F7.2°C 44.4°F6.9°C 98% Calm Calm -- 29.38 in994.9 mb - 0.00 in0.0 mm 0.10 in2.5 mm
10:10 AM 45.1°F7.3°C 44.6°F7.0°C 98% 6.9 mph S11.1 kmh S 8.1 mph13.0 kmh 29.38 in994.9 mb - 0.00 in0.0 mm 0.10 in2.5 mm
10:00 AM 44.8°F7.1°C 44.3°F6.8°C 98% 2.3 mph S3.7 kmh S 5.8 mph9.3 kmh 29.40 in995.6 mb - 0.00 in0.0 mm 0.10 in2.5 mm
09:50 AM 44.4°F6.9°C 43.9°F6.6°C 98% 5.8 mph SSE9.3 kmh SSE 6.9 mph11.1 kmh 29.41 in995.9 mb - 0.02 in0.5 mm 0.10 in2.5 mm
09:40 AM 44.2°F6.8°C 43.7°F6.5°C 98% 2.3 mph S3.7 kmh S 4.6 mph7.4 kmh 29.44 in997.0 mb - 0.03 in0.8 mm 0.10 in2.5 mm
09:30 AM 44.2°F6.8°C 43.7°F6.5°C 98% 2.3 mph S3.7 kmh S 9.2 mph14.8 kmh 29.42 in996.3 mb - 0.00 in0.0 mm 0.07 in1.8 mm
09:20 AM 43.9°F6.6°C 43.4°F6.3°C 98% 1.2 mph S1.9 kmh S 5.8 mph9.3 kmh 29.41 in995.9 mb - 0.02 in0.5 mm 0.07 in1.8 mm
09:10 AM 43.5°F6.4°C 43.0°F6.1°C 98% Calm Calm 2.3 mph3.7 kmh 29.44 in997.0 mb - 0.03 in0.8 mm 0.05 in1.3 mm
09:00 AM 43.5°F6.4°C 43.0°F6.1°C 98% 1.2 mph SSE1.9 kmh SSE 2.3 mph3.7 kmh 29.46 in997.6 mb - 0.02 in0.5 mm 0.03 in0.8 mm
08:50 AM 43.5°F6.4°C 43.0°F6.1°C 98% Calm Calm -- 29.47 in998.0 mb - 0.00 in0.0 mm 0.02 in0.5 mm
08:40 AM 43.5°F6.4°C 43.0°F6.1°C 98% Calm Calm -- 29.47 in998.0 mb - 0.00 in0.0 mm 0.02 in0.5 mm
08:30 AM 43.5°F6.4°C 43.0°F6.1°C 98% Calm Calm 1.2 mph1.9 kmh 29.47 in998.0 mb - 0.00 in0.0 mm 0.02 in0.5 mm
08:20 AM 43.3°F6.3°C 42.8°F6.0°C 98% Calm Calm -- 29.47 in998.0 mb - 0.00 in0.0 mm 0.02 in0.5 mm
08:10 AM 43.2°F6.2°C 42.6°F5.9°C 98% Calm Calm -- 29.47 in998.0 mb - 0.00 in0.0 mm 0.02 in0.5 mm
08:00 AM 43.3°F6.3°C 42.8°F6.0°C 98% Calm Calm -- 29.47 in998.0 mb - 0.00 in0.0 mm 0.02 in0.5 mm
07:50 AM 43.2°F6.2°C 42.6°F5.9°C 98% Calm Calm 2.3 mph3.7 kmh 29.47 in998.0 mb - 0.00 in0.0 mm 0.02 in0.5 mm
07:40 AM 43.3°F6.3°C 42.8°F6.0°C 98% Calm Calm 2.3 mph3.7 kmh 29.50 in999.0 mb - 0.00 in0.0 mm 0.02 in0.5 mm
07:30 AM 43.3°F6.3°C 42.8°F6.0°C 98% 1.2 mph SSE1.9 kmh SSE -- 29.50 in999.0 mb - 0.00 in0.0 mm 0.02 in0.5 mm
07:20 AM 43.3°F6.3°C 42.8°F6.0°C 98% 1.2 mph SSE1.9 kmh SSE 4.6 mph7.4 kmh 29.50 in999.0 mb - 0.00 in0.0 mm 0.02 in0.5 mm
07:10 AM 43.3°F6.3°C 42.8°F6.0°C 98% Calm Calm 4.6 mph7.4 kmh 29.50 in999.0 mb - 0.00 in0.0 mm 0.02 in0.5 mm
07:00 AM 43.2°F6.2°C 42.6°F5.9°C 98% 2.3 mph S3.7 kmh S 4.6 mph7.4 kmh 29.50 in999.0 mb - 0.00 in0.0 mm 0.02 in0.5 mm
06:50 AM 43.0°F6.1°C 42.5°F5.8°C 98% 1.2 mph S1.9 kmh S -- 29.50 in999.0 mb - 0.00 in0.0 mm 0.02 in0.5 mm
06:40 AM 43.0°F6.1°C 42.5°F5.8°C 98% Calm Calm -- 29.50 in999.0 mb - 0.00 in0.0 mm 0.02 in0.5 mm
06:30 AM 43.2°F6.2°C 42.6°F5.9°C 98% Calm Calm -- 29.52 in999.7 mb - 0.00 in0.0 mm 0.02 in0.5 mm
06:20 AM 43.3°F6.3°C 42.8°F6.0°C 98% 1.2 mph SSW1.9 kmh SSW 1.2 mph1.9 kmh 29.53 in1000.0 mb - 0.00 in0.0 mm 0.02 in0.5 mm
06:10 AM 43.2°F6.2°C 42.6°F5.9°C 98% Calm Calm 3.5 mph5.6 kmh 29.56 in1001.0 mb - 0.00 in0.0 mm 0.02 in0.5 mm
06:00 AM 43.0°F6.1°C 42.5°F5.8°C 98% Calm Calm 1.2 mph1.9 kmh 29.56 in1001.0 mb - 0.00 in0.0 mm 0.02 in0.5 mm
05:50 AM 43.0°F6.1°C 42.5°F5.8°C 98% 1.2 mph S1.9 kmh S 3.5 mph5.6 kmh 29.56 in1001.0 mb - 0.00 in0.0 mm 0.02 in0.5 mm
05:40 AM 43.0°F6.1°C 42.5°F5.8°C 98% 2.3 mph S3.7 kmh S 5.8 mph9.3 kmh 29.56 in1001.0 mb - 0.00 in0.0 mm 0.02 in0.5 mm
05:30 AM 42.8°F6.0°C 42.3°F5.7°C 98% 3.5 mph S5.6 kmh S 5.8 mph9.3 kmh 29.56 in1001.0 mb - 0.00 in0.0 mm 0.02 in0.5 mm
05:20 AM 42.8°F6.0°C 42.3°F5.7°C 98% 1.2 mph S1.9 kmh S 5.8 mph9.3 kmh 29.56 in1001.0 mb - 0.00 in0.0 mm 0.02 in0.5 mm
05:10 AM 42.6°F5.9°C 42.1°F5.6°C 98% 1.2 mph SSW1.9 kmh SSW 1.2 mph1.9 kmh 29.56 in1001.0 mb - 0.00 in0.0 mm 0.02 in0.5 mm
05:00 AM 42.4°F5.8°C 41.9°F5.5°C 98% Calm Calm 3.5 mph5.6 kmh 29.58 in1001.7 mb - 0.00 in0.0 mm 0.02 in0.5 mm
04:50 AM 42.4°F5.8°C 41.9°F5.5°C 98% Calm Calm -- 29.59 in1002.0 mb - 0.00 in0.0 mm 0.02 in0.5 mm
04:40 AM 42.6°F5.9°C 42.1°F5.6°C 98% 1.2 mph SSW1.9 kmh SSW 2.3 mph3.7 kmh 29.59 in1002.0 mb - 0.02 in0.5 mm 0.02 in0.5 mm
04:30 AM 42.4°F5.8°C 41.9°F5.5°C 98% 1.2 mph S1.9 kmh S 2.3 mph3.7 kmh 29.61 in1002.7 mb - 0.00 in0.0 mm 0.00 in0.0 mm
04:20 AM 42.4°F5.8°C 41.9°F5.5°C 98% Calm Calm 2.3 mph3.7 kmh 29.62 in1003.0 mb - 0.00 in0.0 mm 0.00 in0.0 mm
04:10 AM 42.3°F5.7°C 41.7°F5.4°C 98% Calm Calm 1.2 mph1.9 kmh 29.62 in1003.0 mb - 0.00 in0.0 mm 0.00 in0.0 mm
04:00 AM 42.1°F5.6°C 41.6°F5.3°C 98% Calm Calm -- 29.62 in1003.0 mb - 0.00 in0.0 mm 0.00 in0.0 mm
03:50 AM 42.3°F5.7°C 41.7°F5.4°C 98% Calm Calm -- 29.62 in1003.0 mb - 0.00 in0.0 mm 0.00 in0.0 mm
03:40 AM 42.6°F5.9°C 42.1°F5.6°C 98% Calm Calm 1.2 mph1.9 kmh 29.65 in1004.1 mb - 0.00 in0.0 mm 0.00 in0.0 mm
03:30 AM 42.9°F6.1°C 42.3°F5.7°C 98% 1.2 mph S1.9 kmh S -- 29.63 in1003.4 mb - 0.00 in0.0 mm 0.00 in0.0 mm
03:20 AM 42.9°F6.1°C 42.3°F5.7°C 98% 1.2 mph SSW1.9 kmh SSW 2.3 mph3.7 kmh 29.62 in1003.0 mb - 0.00 in0.0 mm 0.00 in0.0 mm
03:10 AM 43.0°F6.1°C 42.4°F5.8°C 98% 2.3 mph SW3.7 kmh SW 2.3 mph3.7 kmh 29.62 in1003.0 mb - 0.00 in0.0 mm 0.00 in0.0 mm
03:00 AM 42.8°F6.0°C 42.3°F5.7°C 98% 1.2 mph S1.9 kmh S 4.6 mph7.4 kmh 29.62 in1003.0 mb - 0.00 in0.0 mm 0.00 in0.0 mm
02:50 AM 43.0°F6.1°C 42.5°F5.8°C 98% Calm Calm 3.5 mph5.6 kmh 29.62 in1003.0 mb - 0.00 in0.0 mm 0.00 in0.0 mm
02:40 AM 43.2°F6.2°C 42.6°F5.9°C 98% 1.2 mph S1.9 kmh S 4.6 mph7.4 kmh 29.65 in1004.1 mb - 0.00 in0.0 mm 0.00 in0.0 mm
02:30 AM 43.0°F6.1°C 42.5°F5.8°C 98% 1.2 mph S1.9 kmh S 5.8 mph9.3 kmh 29.67 in1004.7 mb - 0.00 in0.0 mm 0.00 in0.0 mm
02:20 AM 42.4°F5.8°C 41.9°F5.5°C 98% Calm Calm 2.3 mph3.7 kmh 29.68 in1005.1 mb - 0.00 in0.0 mm 0.00 in0.0 mm
02:10 AM 42.3°F5.7°C 41.7°F5.4°C 98% Calm Calm 1.2 mph1.9 kmh 29.68 in1005.1 mb - 0.00 in0.0 mm 0.00 in0.0 mm
02:00 AM 42.3°F5.7°C 41.7°F5.4°C 98% Calm Calm 3.5 mph5.6 kmh 29.68 in1005.1 mb - 0.00 in0.0 mm 0.00 in0.0 mm
01:50 AM 42.3°F5.7°C 41.7°F5.4°C 98% Calm Calm 2.3 mph3.7 kmh 29.68 in1005.1 mb - 0.00 in0.0 mm 0.00 in0.0 mm
01:40 AM 42.1°F5.6°C 41.6°F5.3°C 98% Calm Calm -- 29.68 in1005.1 mb - 0.00 in0.0 mm 0.00 in0.0 mm
01:30 AM 42.1°F5.6°C 41.6°F5.3°C 98% Calm Calm -- 29.68 in1005.1 mb - 0.00 in0.0 mm 0.00 in0.0 mm
01:20 AM 42.1°F5.6°C 41.6°F5.3°C 98% 2.3 mph SSW3.7 kmh SSW -- 29.68 in1005.1 mb - 0.00 in0.0 mm 0.00 in0.0 mm
01:10 AM 41.9°F5.5°C 41.4°F5.2°C 98% Calm Calm 3.5 mph5.6 kmh 29.68 in1005.1 mb - 0.00 in0.0 mm 0.00 in0.0 mm
01:00 AM 42.1°F5.6°C 41.6°F5.3°C 98% Calm Calm 2.3 mph3.7 kmh 29.68 in1005.1 mb - 0.00 in0.0 mm 0.00 in0.0 mm
12:50 AM 42.3°F5.7°C 41.7°F5.4°C 98% 2.3 mph SW3.7 kmh SW 4.6 mph7.4 kmh 29.68 in1005.1 mb - 0.00 in0.0 mm 0.00 in0.0 mm
12:40 AM 42.6°F5.9°C 42.1°F5.6°C 98% 2.3 mph W3.7 kmh W 3.5 mph5.6 kmh 29.68 in1005.1 mb - 0.00 in0.0 mm 0.00 in0.0 mm
12:30 AM 42.8°F6.0°C 42.3°F5.7°C 98% 1.2 mph WSW1.9 kmh WSW 3.5 mph5.6 kmh 29.70 in1005.8 mb - 0.00 in0.0 mm 0.00 in0.0 mm
12:20 AM 42.8°F6.0°C 42.3°F5.7°C 98% 2.3 mph WSW3.7 kmh WSW 4.6 mph7.4 kmh 29.71 in1006.1 mb - 0.00 in0.0 mm 0.00 in0.0 mm
12:10 AM 42.8°F6.0°C 42.3°F5.7°C 98% 2.3 mph WNW3.7 kmh WNW 5.8 mph9.3 kmh 29.68 in1005.1 mb - 0.00 in0.0 mm 0.00 in0.0 mm
12:00 AM 42.6°F5.9°C 42.1°F5.6°C 98% 6.9 mph WNW11.1 kmh WNW 9.2 mph14.8 kmh 29.68 in1005.1 mb - 0.00 in0.0 mm 0.00 in0.0 mm